Time;durP1;ratioP1;P1;durP2;ratioP2;P2;SDS_P1;SDS_P2;PMS_P1;PMS_P2;Temp;Humidity;BMP_temperature;BMP_pressure;BME280_temperature;BME280_humidity;BME280_pressure;Samples;Min_cycle;Max_cycle;Signal;HPM_P1;HPM_P2
2021/11/30 00:00:29;;;;;;;1.10;1.00;;;;;;;3.92;100.00;95711.41;4947731;29;20023;-60
2021/11/30 00:03:15;;;;;;;0.80;0.80;;;;;;;3.89;100.00;95711.59;4958954;29;20067;-61
2021/11/30 00:06:01;;;;;;;0.55;0.55;;;;;;;3.89;100.00;95691.13;4960143;29;20027;-60
2021/11/30 00:08:57;;;;;;;1.92;1.00;;;;;;;4.01;100.00;95683.63;4961417;29;20030;-61
2021/11/30 00:11:43;;;;;;;2.63;1.10;;;;;;;3.73;100.00;95611.06;4955912;29;20095;-59
2021/11/30 00:14:29;;;;;;;0.70;0.70;;;;;;;3.92;100.00;95654.28;4960910;29;20078;-60
2021/11/30 00:17:17;;;;;;;1.15;1.08;;;;;;;3.99;100.00;95642.78;4947296;29;20146;-60
2021/11/30 00:20:04;;;;;;;0.65;0.50;;;;;;;3.88;100.00;95622.94;4961672;29;20054;-59
2021/11/30 00:22:49;;;;;;;1.88;1.10;;;;;;;4.09;100.00;95587.53;4961502;29;20031;-60
2021/11/30 00:25:36;;;;;;;1.00;1.00;;;;;;;4.12;100.00;95596.75;4959723;29;20265;-60
2021/11/30 00:28:22;;;;;;;1.48;0.80;;;;;;;4.05;100.00;95567.34;4959420;28;20111;-60
2021/11/30 00:31:08;;;;;;;1.10;0.70;;;;;;;4.14;100.00;95561.63;4960760;29;20031;-60
2021/11/30 00:33:54;;;;;;;0.80;0.80;;;;;;;4.17;100.00;95532.47;4972269;28;20035;-60
2021/11/30 00:36:40;;;;;;;1.52;0.82;;;;;;;4.16;100.00;95503.47;4945002;29;20035;-61
2021/11/30 00:39:26;;;;;;;0.70;0.70;;;;;;;4.16;100.00;95498.34;4959930;29;20059;-60
2021/11/30 00:42:12;;;;;;;1.02;0.82;;;;;;;4.21;100.00;95483.50;4945173;29;20031;-60
2021/11/30 00:45:01;;;;;;;0.60;0.60;;;;;;;4.22;100.00;95471.53;4961775;29;20042;-60
2021/11/30 00:47:59;;;;;;;0.68;0.68;;;;;;;4.28;100.00;95451.47;4947436;29;20190;-60
2021/11/30 00:50:46;;;;;;;0.85;0.77;;;;;;;4.21;100.00;95428.94;4958917;29;20066;-60
2021/11/30 00:53:32;;;;;;;0.60;0.60;;;;;;;4.32;100.00;95421.38;4953089;29;20042;-60
2021/11/30 00:56:18;;;;;;;1.10;0.55;;;;;;;4.39;100.00;95402.13;4956267;28;20022;-60
2021/11/30 00:59:04;;;;;;;0.60;0.60;;;;;;;4.37;100.00;95391.13;4963674;28;20094;-60
2021/11/30 01:01:50;;;;;;;0.60;0.60;;;;;;;4.40;100.00;95377.31;4960762;29;20099;-60
2021/11/30 01:04:36;;;;;;;1.10;0.60;;;;;;;4.45;100.00;95388.09;4951746;29;20028;-60
2021/11/30 01:07:22;;;;;;;1.05;0.80;;;;;;;4.40;100.00;95356.81;4960418;29;20028;-60
2021/11/30 01:10:14;;;;;;;0.73;0.60;;;;;;;4.16;100.00;95285.84;4953486;29;20169;-60
2021/11/30 01:13:00;;;;;;;0.70;0.70;;;;;;;4.41;100.00;95307.25;4946449;29;20032;-61
2021/11/30 01:15:46;;;;;;;2.42;0.70;;;;;;;4.47;100.00;95306.81;4952438;29;20031;-60
2021/11/30 01:18:33;;;;;;;3.40;0.80;;;;;;;4.62;100.00;95299.84;4960783;29;20023;-61
2021/11/30 01:21:19;;;;;;;0.70;0.70;;;;;;;4.48;100.00;95263.16;4960885;29;20030;-60
2021/11/30 01:24:06;;;;;;;1.25;1.15;;;;;;;4.52;100.00;95253.53;4951840;29;20060;-60
2021/11/30 01:26:52;;;;;;;1.42;0.80;;;;;;;4.59;100.00;95257.31;4956837;29;20261;-60
2021/11/30 01:29:38;;;;;;;0.73;0.73;;;;;;;4.56;100.00;95229.34;4958556;29;20316;-60
2021/11/30 01:32:24;;;;;;;2.45;0.90;;;;;;;4.59;100.00;95225.75;4960918;29;20031;-60
2021/11/30 01:35:11;;;;;;;1.20;1.10;;;;;;;4.66;100.00;95214.97;4960567;29;20027;-60
2021/11/30 01:37:57;;;;;;;1.45;1.10;;;;;;;4.69;100.00;95202.84;4960620;29;20031;-60
2021/11/30 01:40:43;;;;;;;1.00;1.00;;;;;;;4.70;100.00;95194.25;4959865;28;20146;-60
2021/11/30 01:43:40;;;;;;;0.80;0.80;;;;;;;4.68;100.00;95171.31;4948593;29;20220;-59
2021/11/30 01:46:51;;;;;;;0.93;0.93;;;;;;;4.74;100.00;95157.25;4963058;29;20094;-60
2021/11/30 01:49:35;;;;;;;1.63;1.50;;;;;;;4.83;100.00;95148.88;4963270;29;20116;-60
2021/11/30 01:52:21;;;;;;;1.30;1.20;;;;;;;4.86;100.00;95125.59;4957951;29;20047;-59
2021/11/30 01:55:08;;;;;;;1.55;1.40;;;;;;;4.92;100.00;95116.66;4962982;29;20316;-59
2021/11/30 01:57:54;;;;;;;1.35;1.10;;;;;;;4.88;100.00;95117.81;4948706;29;20043;-59
2021/11/30 02:00:42;;;;;;;1.40;1.30;;;;;;;4.91;100.00;95090.19;4974157;28;20049;-59
2021/11/30 02:03:28;;;;;;;1.95;1.67;;;;;;;5.00;100.00;95089.53;4951083;29;20221;-60
2021/11/30 02:06:14;;;;;;;1.88;1.58;;;;;;;5.04;100.00;95077.28;4961934;29;20070;-59
2021/11/30 02:09:01;;;;;;;2.22;1.70;;;;;;;5.10;100.00;95066.59;4950982;29;20031;-59
2021/11/30 02:11:47;;;;;;;2.30;1.80;;;;;;;5.07;100.00;95061.66;4964096;29;20024;-59
2021/11/30 02:14:34;;;;;;;2.42;2.08;;;;;;;5.23;100.00;95038.28;4962415;28;20034;-59
2021/11/30 02:17:20;;;;;;;2.50;1.77;;;;;;;5.30;100.00;95042.00;4963197;29;20023;-61
2021/11/30 02:20:08;;;;;;;2.30;2.08;;;;;;;5.32;100.00;95022.19;4961939;29;20109;-60
2021/11/30 02:22:56;;;;;;;2.58;2.03;;;;;;;5.36;100.00;95023.59;4964467;29;20035;-59
2021/11/30 02:25:42;;;;;;;2.95;2.13;;;;;;;5.44;100.00;95007.59;4962918;29;20058;-60
2021/11/30 02:28:28;;;;;;;2.42;1.88;;;;;;;5.50;100.00;94999.44;4962306;29;20038;-59
2021/11/30 02:31:17;;;;;;;2.72;1.95;;;;;;;5.36;100.00;94963.78;4955550;29;20418;-60
2021/11/30 02:34:04;;;;;;;2.08;1.90;;;;;;;5.53;100.00;94977.88;4955296;29;20078;-59
2021/11/30 02:36:52;;;;;;;2.70;2.45;;;;;;;5.62;100.00;94966.06;4963435;29;20023;-60
2021/11/30 02:39:40;;;;;;;4.22;2.35;;;;;;;5.60;100.00;94963.63;4963093;29;20051;-61
2021/11/30 02:42:26;;;;;;;3.10;2.80;;;;;;;5.83;100.00;94963.56;4950232;29;20051;-61
2021/11/30 02:45:13;;;;;;;4.40;2.50;;;;;;;5.83;100.00;94955.88;4957595;29;20057;-61
2021/11/30 02:47:59;;;;;;;2.75;2.53;;;;;;;5.78;100.00;94937.44;4960934;29;20153;-61
2021/11/30 02:50:46;;;;;;;3.75;2.65;;;;;;;5.88;100.00;94928.88;4948017;29;20122;-61
2021/11/30 02:53:31;;;;;;;3.33;2.60;;;;;;;5.68;100.00;94902.22;4962211;29;20030;-61
2021/11/30 02:56:17;;;;;;;3.40;3.00;;;;;;;6.01;100.00;94927.94;4962656;29;20043;-60
2021/11/30 02:59:03;;;;;;;5.47;3.20;;;;;;;6.10;100.00;94911.78;4949956;29;20035;-60
2021/11/30 03:01:58;;;;;;;3.30;2.97;;;;;;;6.24;100.00;94923.50;4960978;29;20028;-60
2021/11/30 03:04:48;;;;;;;3.30;2.90;;;;;;;6.32;100.00;94923.69;4963101;29;20031;-60
2021/11/30 03:07:38;;;;;;;5.57;4.10;;;;;;;6.32;100.00;94907.47;4945466;29;20024;-60
2021/11/30 03:10:24;;;;;;;5.18;4.18;;;;;;;6.41;100.00;94900.75;4946401;29;20103;-60
2021/11/30 03:13:10;;;;;;;6.28;4.55;;;;;;;6.47;100.00;94913.09;4962881;28;20069;-59
2021/11/30 03:15:57;;;;;;;6.90;5.80;;;;;;;6.61;100.00;94902.47;4961310;29;20043;-60
2021/11/30 03:18:43;;;;;;;6.32;5.72;;;;;;;6.74;100.00;94892.81;4948483;29;20151;-60
2021/11/30 03:21:29;;;;;;;7.45;6.47;;;;;;;6.87;100.00;94902.88;4962173;29;20042;-58
2021/11/30 03:24:16;;;;;;;6.05;5.45;;;;;;;6.97;100.00;94900.34;4947673;29;20034;-59
2021/11/30 03:27:02;;;;;;;6.30;5.47;;;;;;;7.12;100.00;94899.97;4962558;29;20155;-59
2021/11/30 03:29:48;;;;;;;5.65;4.93;;;;;;;7.19;100.00;94883.09;4946015;29;20031;-59
2021/11/30 03:35:22;;;;;;;5.68;5.10;;;;;;;7.09;100.00;94829.03;4959343;29;20035;-59
2021/11/30 03:38:08;;;;;;;6.97;5.25;;;;;;;7.48;100.00;94877.16;4949511;29;20051;-60
2021/11/30 03:40:53;;;;;;;3.80;3.50;;;;;;;7.67;100.00;94879.78;4961118;29;20051;-59
2021/11/30 03:43:40;;;;;;;4.45;4.05;;;;;;;7.73;100.00;94874.06;4960498;29;20023;-59
2021/11/30 03:46:26;;;;;;;5.97;3.60;;;;;;;7.80;100.00;94879.50;4960269;29;20138;-59
2021/11/30 03:49:13;;;;;;;5.28;2.95;;;;;;;7.82;100.00;94887.09;4949801;29;20343;-57
2021/11/30 03:51:59;;;;;;;3.00;2.70;;;;;;;7.89;100.00;94903.63;4957051;29;20532;-60
2021/11/30 03:54:45;;;;;;;3.20;2.90;;;;;;;7.91;100.00;94894.00;4978134;28;20035;-59
2021/11/30 03:57:31;;;;;;;3.10;1.95;;;;;;;7.98;100.00;94899.41;4961971;29;20019;-58
2021/11/30 04:00:17;;;;;;;1.55;1.40;;;;;;;7.97;100.00;94902.94;4962234;29;20030;-59
2021/11/30 04:03:04;;;;;;;1.23;1.13;;;;;;;7.96;100.00;94894.41;4941349;29;20411;-58
2021/11/30 04:05:53;;;;;;;0.80;0.80;;;;;;;7.97;99.70;94905.50;4955184;29;20042;-60
2021/11/30 04:08:39;;;;;;;1.10;1.00;;;;;;;7.97;100.00;94903.75;4959829;29;20110;-60
2021/11/30 04:11:25;;;;;;;0.85;0.85;;;;;;;7.95;99.73;94923.69;4953480;28;20115;-60
2021/11/30 04:14:12;;;;;;;1.33;0.90;;;;;;;8.00;98.86;94936.97;4968740;28;20028;-60
2021/11/30 04:16:58;;;;;;;1.85;1.75;;;;;;;7.91;98.53;94948.91;4947151;29;20371;-60
2021/11/30 04:19:43;;;;;;;1.42;1.23;;;;;;;7.92;99.49;94945.38;4955322;29;20383;-59
2021/11/30 04:22:29;;;;;;;1.80;1.13;;;;;;;7.85;98.33;94953.78;4962343;29;20031;-59
2021/11/30 04:25:15;;;;;;;1.95;0.90;;;;;;;7.77;97.22;94967.31;4955832;29;20497;-60
2021/11/30 04:28:01;;;;;;;1.65;0.88;;;;;;;7.70;96.19;94972.19;4960210;28;20090;-59
2021/11/30 04:30:47;;;;;;;0.90;0.82;;;;;;;7.57;96.11;94987.06;4959430;29;20067;-60
2021/11/30 04:33:33;;;;;;;0.60;0.60;;;;;;;7.52;95.41;94981.50;4961317;29;20050;-58
2021/11/30 04:36:19;;;;;;;0.88;0.88;;;;;;;7.35;95.36;95009.44;4958818;29;20042;-58
2021/11/30 04:39:05;;;;;;;1.38;1.00;;;;;;;7.27;95.65;95004.16;4958919;29;20031;-61
2021/11/30 04:41:51;;;;;;;1.10;0.80;;;;;;;7.11;93.21;95019.25;4960617;29;20047;-60
2021/11/30 04:44:39;;;;;;;1.10;1.00;;;;;;;7.03;93.07;95030.19;4960756;29;20074;-59
2021/11/30 04:47:29;;;;;;;1.05;0.80;;;;;;;7.06;93.15;95035.88;4952705;29;20035;-59
2021/11/30 04:50:19;;;;;;;1.05;0.93;;;;;;;6.90;93.28;95056.09;4961934;29;20027;-56
2021/11/30 04:53:07;;;;;;;0.70;0.52;;;;;;;6.80;92.71;95075.75;4951096;29;20457;-56
2021/11/30 04:55:53;;;;;;;0.43;0.43;;;;;;;6.66;91.32;95095.69;4944381;29;20115;-57
2021/11/30 04:58:40;;;;;;;0.90;0.60;;;;;;;6.68;92.56;95096.41;4944484;28;20035;-56
2021/11/30 05:01:26;;;;;;;3.08;0.90;;;;;;;6.64;92.95;95092.44;4944515;29;20257;-57
2021/11/30 05:04:13;;;;;;;2.05;0.90;;;;;;;6.45;92.47;95123.09;4959238;29;20027;-58
2021/11/30 05:06:59;;;;;;;0.60;0.45;;;;;;;6.35;91.50;95143.56;4959360;29;20035;-58
2021/11/30 05:09:45;;;;;;;0.50;0.50;;;;;;;6.25;91.99;95133.19;4944853;29;20035;-58
2021/11/30 05:12:31;;;;;;;1.00;0.70;;;;;;;6.28;91.96;95147.56;4960735;29;20109;-58
2021/11/30 05:15:17;;;;;;;0.55;0.50;;;;;;;6.24;91.17;95166.69;4962483;28;20023;-57
2021/11/30 05:18:04;;;;;;;0.60;0.40;;;;;;;6.17;91.70;95161.22;4963342;29;20034;-57
2021/11/30 05:20:51;;;;;;;1.20;0.50;;;;;;;6.23;91.20;95163.31;4962727;29;20039;-57
2021/11/30 05:23:38;;;;;;;0.47;0.43;;;;;;;6.27;91.74;95180.13;4961571;29;20034;-57
2021/11/30 05:26:24;;;;;;;0.40;0.40;;;;;;;6.22;91.72;95192.50;4959434;29;20050;-57
2021/11/30 05:29:10;;;;;;;0.82;0.77;;;;;;;6.29;92.03;95175.69;4963874;29;20043;-57
2021/11/30 05:31:56;;;;;;;1.65;1.20;;;;;;;6.31;92.94;95185.84;4948549;29;20035;-57
2021/11/30 05:34:42;;;;;;;0.68;0.68;;;;;;;6.27;92.15;95192.16;4977089;28;20065;-56
2021/11/30 05:37:28;;;;;;;0.90;0.80;;;;;;;6.28;91.52;95189.44;4955250;29;20028;-57
2021/11/30 05:40:14;;;;;;;0.82;0.80;;;;;;;6.46;92.29;95201.84;4956540;28;20332;-57
2021/11/30 05:43:00;;;;;;;3.42;0.60;;;;;;;6.54;91.04;95212.31;4962211;29;20383;-57
2021/11/30 05:45:47;;;;;;;1.70;0.65;;;;;;;6.54;91.16;95223.44;4963782;29;20066;-58
2021/11/30 05:48:34;;;;;;;0.63;0.50;;;;;;;6.52;91.29;95219.34;4959481;29;20094;-57
2021/11/30 05:51:19;;;;;;;1.08;0.68;;;;;;;6.46;91.25;95218.06;4963831;29;20030;-57
2021/11/30 05:54:05;;;;;;;0.73;0.73;;;;;;;6.46;91.80;95223.19;4964947;28;20027;-57
2021/11/30 05:56:51;;;;;;;2.67;1.00;;;;;;;6.43;92.15;95207.19;4962693;29;20118;-57
2021/11/30 05:59:41;;;;;;;0.85;0.80;;;;;;;6.46;92.00;95230.91;4961249;29;20037;-58
2021/11/30 06:02:30;;;;;;;0.70;0.70;;;;;;;6.42;93.03;95237.22;4961718;29;20027;-57
2021/11/30 06:05:16;;;;;;;0.90;0.80;;;;;;;6.37;92.83;95226.47;4951648;28;20040;-58
2021/11/30 06:08:03;;;;;;;1.95;0.90;;;;;;;6.51;93.49;95240.81;4965188;28;20216;-57
2021/11/30 06:10:49;;;;;;;1.10;0.98;;;;;;;6.38;93.51;95252.06;4961613;29;20028;-57
2021/11/30 06:13:35;;;;;;;0.80;0.80;;;;;;;6.39;93.92;95263.94;4962057;29;20027;-57
2021/11/30 06:16:22;;;;;;;0.93;0.55;;;;;;;6.33;93.26;95271.34;4948780;29;20054;-57
2021/11/30 06:19:08;;;;;;;2.38;0.80;;;;;;;6.20;92.06;95268.88;4988619;28;20086;-57
2021/11/30 06:21:54;;;;;;;0.77;0.77;;;;;;;6.16;90.71;95275.97;4961998;29;20042;-58
2021/11/30 06:24:40;;;;;;;1.20;0.68;;;;;;;6.09;88.87;95277.38;4963134;29;20019;-58
2021/11/30 06:27:26;;;;;;;2.00;0.80;;;;;;;6.20;89.02;95287.66;4962158;29;20035;-57
2021/11/30 06:30:12;;;;;;;1.60;0.90;;;;;;;6.22;89.43;95298.63;4963701;29;20045;-57
2021/11/30 06:32:58;;;;;;;1.15;0.75;;;;;;;6.13;87.16;95308.78;4963043;29;20042;-57
2021/11/30 06:35:44;;;;;;;1.95;0.85;;;;;;;6.12;87.55;95302.81;4962167;29;20083;-56
2021/11/30 06:38:30;;;;;;;0.82;0.82;;;;;;;6.04;86.96;95321.38;4962834;29;20049;-56
2021/11/30 06:41:17;;;;;;;1.40;1.10;;;;;;;6.12;87.97;95309.72;4946130;29;20151;-56
2021/11/30 06:44:03;;;;;;;2.03;1.15;;;;;;;5.97;86.71;95329.59;4962142;29;20094;-57
2021/11/30 06:46:49;;;;;;;1.85;0.93;;;;;;;5.92;86.34;95322.25;4946640;29;20320;-56
2021/11/30 06:49:35;;;;;;;0.80;0.80;;;;;;;5.88;84.32;95342.19;4961930;29;20059;-57
2021/11/30 06:52:21;;;;;;;1.92;0.70;;;;;;;5.74;83.68;95339.00;4967316;28;20027;-59
2021/11/30 06:55:09;;;;;;;2.35;1.10;;;;;;;5.52;82.18;95314.91;4960606;29;20091;-57
2021/11/30 06:57:55;;;;;;;2.10;0.85;;;;;;;5.81;85.25;95355.59;4960873;29;20601;-56
2021/11/30 07:00:41;;;;;;;1.23;0.60;;;;;;;5.63;82.04;95363.69;4961839;29;20114;-58
2021/11/30 07:03:27;;;;;;;1.40;0.80;;;;;;;5.68;83.75;95369.31;4963273;29;20074;-57
2021/11/30 07:06:22;;;;;;;1.33;0.60;;;;;;;5.59;83.30;95375.09;4959521;28;20064;-57
2021/11/30 07:09:17;;;;;;;1.27;0.73;;;;;;;5.53;82.37;95360.16;4960358;29;20107;-57
2021/11/30 07:12:14;;;;;;;0.63;0.63;;;;;;;5.65;82.73;95348.19;4961929;29;20228;-58
2021/11/30 07:15:00;;;;;;;0.65;0.65;;;;;;;5.72;82.63;95376.81;4962561;29;20225;-56
2021/11/30 07:17:46;;;;;;;2.15;0.90;;;;;;;5.69;82.48;95370.13;4962490;29;20034;-59
2021/11/30 07:20:32;;;;;;;1.52;0.65;;;;;;;5.73;81.16;95384.41;4960460;29;20079;-58
2021/11/30 07:23:18;;;;;;;1.80;0.75;;;;;;;5.80;82.87;95389.88;4960095;29;20031;-57
2021/11/30 07:26:05;;;;;;;0.60;0.60;;;;;;;5.51;82.17;95359.44;4955256;28;20066;-57
2021/11/30 07:28:51;;;;;;;0.70;0.70;;;;;;;5.57;82.51;95382.09;4959594;29;20035;-56
2021/11/30 07:31:38;;;;;;;0.70;0.70;;;;;;;5.56;83.59;95382.19;4959968;29;20059;-56
2021/11/30 07:34:24;;;;;;;2.35;0.90;;;;;;;5.50;84.40;95379.16;4962014;29;20214;-56
2021/11/30 07:37:10;;;;;;;0.40;0.40;;;;;;;5.48;83.45;95378.44;4960269;28;20374;-61
2021/11/30 07:39:56;;;;;;;0.70;0.70;;;;;;;5.49;81.62;95369.81;4960725;29;20105;-56
2021/11/30 07:42:45;;;;;;;0.60;0.52;;;;;;;5.36;81.75;95381.88;4951192;28;20039;-56
2021/11/30 07:45:30;;;;;;;1.85;1.13;;;;;;;5.48;83.04;95380.19;4944527;28;20039;-56
2021/11/30 07:48:17;;;;;;;1.75;0.60;;;;;;;5.27;81.35;95367.97;4967961;28;20082;-56
2021/11/30 07:51:05;;;;;;;0.70;0.70;;;;;;;5.26;83.24;95366.31;4957925;28;20031;-57
2021/11/30 07:53:51;;;;;;;0.73;0.73;;;;;;;5.18;81.22;95379.66;4958887;28;20031;-56
2021/11/30 07:56:37;;;;;;;0.70;0.70;;;;;;;5.26;80.80;95379.13;4959581;28;20035;-57
2021/11/30 07:59:23;;;;;;;0.93;0.93;;;;;;;5.14;78.97;95357.72;4960572;29;20051;-58
2021/11/30 08:02:09;;;;;;;2.53;0.65;;;;;;;4.98;78.40;95385.38;4958177;29;20035;-56
2021/11/30 08:04:55;;;;;;;1.85;0.93;;;;;;;4.96;77.85;95370.09;4959332;29;20105;-56
2021/11/30 08:07:41;;;;;;;2.25;0.93;;;;;;;4.93;79.79;95383.13;4960572;28;20039;-57
2021/11/30 08:10:28;;;;;;;1.48;0.70;;;;;;;4.87;78.86;95388.66;4957324;28;20030;-58
2021/11/30 08:13:15;;;;;;;0.95;0.90;;;;;;;5.01;78.42;95387.72;4958080;29;20035;-56
2021/11/30 08:16:01;;;;;;;1.38;0.70;;;;;;;4.94;78.50;95384.75;4957404;29;20038;-58
2021/11/30 08:18:46;;;;;;;2.08;1.00;;;;;;;4.90;78.58;95385.88;4956042;28;20074;-57
2021/11/30 08:21:34;;;;;;;1.00;0.90;;;;;;;4.66;78.13;95384.06;4957103;29;20046;-60
2021/11/30 08:24:20;;;;;;;1.33;0.95;;;;;;;4.85;77.55;95385.38;4956813;29;20030;-57
2021/11/30 08:27:06;;;;;;;0.70;0.70;;;;;;;4.70;79.34;95394.13;4957340;29;20023;-59
2021/11/30 08:29:52;;;;;;;1.08;0.80;;;;;;;4.74;76.64;95385.28;4960195;28;20043;-57
2021/11/30 08:32:44;;;;;;;0.93;0.80;;;;;;;4.68;76.92;95386.53;4958112;29;20023;-59
2021/11/30 08:35:30;;;;;;;1.30;1.20;;;;;;;4.82;77.72;95394.09;4956151;29;20027;-58
2021/11/30 08:38:19;;;;;;;2.75;0.85;;;;;;;4.52;78.97;95397.00;4959243;29;20051;-57
2021/11/30 08:41:05;;;;;;;2.25;0.60;;;;;;;4.28;79.46;95374.66;4958988;29;20043;-57
2021/11/30 08:43:51;;;;;;;0.70;0.60;;;;;;;4.41;80.52;95384.09;4960109;29;20027;-58
2021/11/30 08:46:37;;;;;;;1.02;0.95;;;;;;;4.26;78.51;95394.44;4957919;29;20301;-57
2021/11/30 08:49:23;;;;;;;1.83;0.90;;;;;;;4.28;79.54;95405.38;4943993;29;20203;-57
2021/11/30 08:52:15;;;;;;;2.33;0.80;;;;;;;4.10;80.68;95427.06;4954294;29;20027;-56
2021/11/30 08:55:01;;;;;;;1.15;0.90;;;;;;;4.09;78.94;95410.06;4961185;29;20042;-57
2021/11/30 08:57:47;;;;;;;0.95;0.80;;;;;;;4.22;79.34;95392.16;4960469;29;20039;-56
2021/11/30 09:00:35;;;;;;;0.80;0.80;;;;;;;3.95;77.84;95367.47;4959823;29;20098;-59
2021/11/30 09:03:22;;;;;;;0.75;0.75;;;;;;;4.06;77.67;95379.53;4958288;29;20225;-58
2021/11/30 09:06:08;;;;;;;0.80;0.77;;;;;;;4.07;77.36;95391.44;4956439;29;20133;-57
2021/11/30 09:08:54;;;;;;;1.52;1.00;;;;;;;3.98;77.55;95401.34;4946437;28;20044;-57
2021/11/30 09:11:40;;;;;;;2.33;0.80;;;;;;;3.98;78.58;95396.22;4946752;29;20023;-57
2021/11/30 09:14:27;;;;;;;1.73;1.20;;;;;;;3.96;78.17;95392.94;4959816;29;20197;-58
2021/11/30 09:17:14;;;;;;;1.85;0.98;;;;;;;3.98;78.47;95388.53;4960539;29;20260;-56
2021/11/30 09:20:00;;;;;;;2.15;1.08;;;;;;;3.84;78.74;95398.84;4959891;29;20046;-58
2021/11/30 09:22:46;;;;;;;0.93;0.77;;;;;;;3.78;77.40;95387.28;4960731;29;20086;-56
2021/11/30 09:25:32;;;;;;;1.10;0.80;;;;;;;3.79;78.29;95380.41;4960687;29;20034;-57
2021/11/30 09:28:18;;;;;;;0.93;0.85;;;;;;;3.82;76.99;95389.63;4942605;29;20108;-56
2021/11/30 09:31:06;;;;;;;1.77;0.73;;;;;;;3.83;78.62;95379.28;4958972;29;20038;-56
2021/11/30 09:33:52;;;;;;;1.27;0.70;;;;;;;3.76;77.35;95391.69;4959744;29;20095;-59
2021/11/30 09:36:40;;;;;;;1.15;0.80;;;;;;;3.78;78.86;95389.03;4943528;29;20044;-58
2021/11/30 09:39:26;;;;;;;0.75;0.70;;;;;;;3.54;77.70;95366.63;4943891;29;20126;-58
2021/11/30 09:42:13;;;;;;;1.40;0.70;;;;;;;3.57;77.14;95378.41;4960040;28;20250;-57
2021/11/30 09:45:04;;;;;;;2.10;1.10;;;;;;;3.07;78.28;95315.03;4943819;29;20042;-59
2021/11/30 09:47:50;;;;;;;3.50;1.15;;;;;;;3.43;79.97;95379.28;4952366;29;20146;-58
2021/11/30 09:50:36;;;;;;;1.00;0.90;;;;;;;3.43;80.51;95381.84;4960026;28;20043;-58
2021/11/30 09:53:22;;;;;;;3.15;0.80;;;;;;;3.37;79.20;95382.22;4951361;29;20351;-57
2021/11/30 09:56:09;;;;;;;1.70;0.82;;;;;;;3.24;79.16;95371.94;4945662;29;20342;-57
2021/11/30 09:58:55;;;;;;;3.58;0.60;;;;;;;3.31;79.61;95377.47;4960860;29;20220;-58
2021/11/30 10:01:41;;;;;;;1.75;0.77;;;;;;;3.28;79.56;95383.63;4960830;28;20094;-57
2021/11/30 10:04:27;;;;;;;1.13;0.80;;;;;;;3.30;78.44;95357.97;4963993;29;20019;-56
2021/11/30 10:07:13;;;;;;;0.80;0.77;;;;;;;3.19;78.51;95371.41;4963947;29;20347;-57
2021/11/30 10:10:30;;;;;;;0.70;0.68;;;;;;;3.14;79.09;95371.69;4963734;29;20038;-56
2021/11/30 10:13:16;;;;;;;1.75;0.98;;;;;;;3.27;80.50;95376.88;4958791;28;20190;-56
2021/11/30 10:16:05;;;;;;;1.80;1.00;;;;;;;2.92;80.79;95362.78;4963686;29;20038;-57
2021/11/30 10:18:51;;;;;;;1.75;0.73;;;;;;;2.90;81.90;95358.69;4963199;29;20027;-57
2021/11/30 10:21:37;;;;;;;0.82;0.80;;;;;;;3.02;83.52;95363.06;4961300;29;20224;-56
2021/11/30 10:24:23;;;;;;;2.08;0.80;;;;;;;3.08;83.95;95355.00;4949964;29;20205;-56
2021/11/30 10:27:09;;;;;;;2.67;0.80;;;;;;;2.92;84.72;95359.41;4960919;29;20332;-58
2021/11/30 10:29:55;;;;;;;1.10;0.85;;;;;;;2.70;84.75;95359.91;4961661;29;20043;-56
2021/11/30 10:32:44;;;;;;;2.33;1.00;;;;;;;2.53;85.51;95350.69;4963777;29;20023;-57
2021/11/30 10:35:30;;;;;;;1.92;1.00;;;;;;;2.66;86.50;95350.78;4963562;29;20038;-57
2021/11/30 10:38:16;;;;;;;2.20;1.13;;;;;;;2.60;86.97;95349.41;4962751;29;20098;-55
2021/11/30 10:41:17;;;;;;;2.25;1.13;;;;;;;2.56;86.71;95327.53;4957450;29;20289;-57
2021/11/30 10:44:04;;;;;;;1.15;0.90;;;;;;;2.56;87.26;95336.00;4963074;29;20035;-56
2021/11/30 10:46:50;;;;;;;2.08;0.95;;;;;;;2.52;87.05;95354.16;4959773;29;20035;-57
2021/11/30 10:49:47;;;;;;;2.53;0.98;;;;;;;2.32;86.38;95327.25;4945616;29;20067;-55
2021/11/30 10:52:34;;;;;;;1.00;0.80;;;;;;;2.49;87.54;95331.38;4958489;29;20031;-57
2021/11/30 10:55:20;;;;;;;2.15;0.70;;;;;;;2.35;85.33;95340.69;4963596;29;20030;-55
2021/11/30 10:58:06;;;;;;;1.73;0.80;;;;;;;2.28;85.25;95344.50;4961975;29;20122;-56
2021/11/30 11:00:53;;;;;;;1.17;0.90;;;;;;;2.37;85.24;95312.50;4958788;29;20098;-55
2021/11/30 11:03:39;;;;;;;1.52;1.00;;;;;;;2.29;84.65;95320.59;4957282;29;20023;-57
2021/11/30 11:06:28;;;;;;;1.63;1.15;;;;;;;2.36;83.17;95326.19;4961921;29;20240;-58
2021/11/30 11:09:14;;;;;;;1.27;1.00;;;;;;;2.46;83.81;95319.59;4959968;29;20284;-59
2021/11/30 11:12:04;;;;;;;3.72;1.17;;;;;;;2.29;83.98;95322.34;4960403;28;20078;-56
2021/11/30 11:14:50;;;;;;;2.67;1.23;;;;;;;2.27;85.52;95301.19;4952027;28;20031;-57
2021/11/30 11:17:36;;;;;;;1.33;0.95;;;;;;;2.13;87.88;95325.81;4962665;29;20035;-58
2021/11/30 11:20:21;;;;;;;1.33;1.13;;;;;;;2.18;88.44;95315.31;4960471;28;20078;-56
2021/11/30 11:23:07;;;;;;;2.60;1.08;;;;;;;2.02;87.59;95308.59;4962047;29;20039;-56
2021/11/30 11:25:53;;;;;;;1.55;1.15;;;;;;;1.95;87.64;95309.81;4952536;29;20208;-56
2021/11/30 11:28:39;;;;;;;1.77;0.95;;;;;;;1.77;87.90;95305.78;4947630;29;20340;-57
2021/11/30 11:31:27;;;;;;;1.33;0.80;;;;;;;1.35;88.30;95295.41;4955483;29;20118;-57
2021/11/30 11:34:16;;;;;;;1.63;0.73;;;;;;;1.27;88.17;95323.03;4958922;29;20030;-56
2021/11/30 11:37:05;;;;;;;1.13;0.77;;;;;;;1.30;89.60;95326.25;4962202;29;20051;-56
2021/11/30 11:39:52;;;;;;;0.98;0.90;;;;;;;1.53;90.21;95324.94;4959754;28;20348;-57
2021/11/30 11:42:38;;;;;;;1.20;0.80;;;;;;;1.30;88.70;95310.16;4959689;29;20039;-56
2021/11/30 11:45:24;;;;;;;1.67;1.27;;;;;;;1.33;88.78;95309.97;4951755;28;20028;-58
2021/11/30 11:48:11;;;;;;;1.20;1.10;;;;;;;1.37;90.00;95314.00;4957746;29;20028;-55
2021/11/30 11:51:00;;;;;;;3.67;1.20;;;;;;;1.03;89.90;95259.81;4947297;29;20106;-57
2021/11/30 11:53:54;;;;;;;1.02;0.93;;;;;;;1.02;89.18;95247.97;4961716;29;20063;-57
2021/11/30 11:56:40;;;;;;;1.95;1.10;;;;;;;1.40;90.46;95302.78;4946006;29;20039;-55
2021/11/30 11:59:45;;;;;;;2.22;1.15;;;;;;;1.31;90.30;95299.88;4961944;29;20143;-56
2021/11/30 12:02:31;;;;;;;1.98;1.40;;;;;;;1.14;90.12;95290.59;4961451;29;20038;-55
2021/11/30 12:05:25;;;;;;;1.85;1.02;;;;;;;0.94;89.40;95293.41;4954282;29;20078;-55
2021/11/30 12:08:35;;;;;;;1.35;0.90;;;;;;;0.92;89.64;95296.03;4961112;29;20217;-56
2021/11/30 12:11:49;;;;;;;1.25;0.82;;;;;;;0.98;89.92;95303.38;4961429;29;20098;-56
2021/11/30 12:14:47;;;;;;;1.38;0.80;;;;;;;0.70;89.19;95245.50;4959651;29;20568;-56
2021/11/30 12:17:33;;;;;;;1.65;1.10;;;;;;;1.10;88.98;95299.31;4958525;29;20139;-56
2021/11/30 12:20:19;;;;;;;1.08;0.80;;;;;;;1.01;87.83;95304.91;4961260;29;20030;-55
2021/11/30 12:23:06;;;;;;;0.82;0.68;;;;;;;1.08;88.26;95290.94;4805954;28;26463;-55
2021/11/30 12:25:52;;;;;;;1.25;0.60;;;;;;;1.09;87.50;95300.22;4960038;29;20031;-56
2021/11/30 12:28:40;;;;;;;0.80;0.80;;;;;;;0.90;86.96;95276.66;4960099;29;20042;-56
2021/11/30 12:31:37;;;;;;;1.05;0.85;;;;;;;0.78;88.10;95245.88;4958921;28;20038;-57
2021/11/30 12:34:47;;;;;;;0.70;0.68;;;;;;;0.81;87.22;95255.91;4960045;29;20224;-56
2021/11/30 12:37:33;;;;;;;1.20;0.90;;;;;;;1.10;87.79;95295.94;4946826;29;20035;-56
2021/11/30 12:40:19;;;;;;;2.13;0.93;;;;;;;0.97;88.10;95300.88;4944840;29;20144;-57
2021/11/30 12:43:13;;;;;;;4.80;1.17;;;;;;;1.07;89.14;95291.84;4961361;29;20664;-57
2021/11/30 12:46:03;;;;;;;5.78;1.08;;;;;;;1.07;88.54;95316.50;4959688;29;20046;-57
2021/11/30 12:48:49;;;;;;;2.95;1.02;;;;;;;0.86;87.79;95298.94;4961656;28;20050;-57
2021/11/30 12:51:35;;;;;;;0.60;0.60;;;;;;;0.94;88.72;95307.00;4957713;29;20352;-56
2021/11/30 12:54:24;;;;;;;0.85;0.85;;;;;;;0.99;88.81;95299.09;4956182;29;20070;-56
2021/11/30 12:57:13;;;;;;;1.15;0.90;;;;;;;0.64;88.47;95253.44;4959705;29;20031;-57
2021/11/30 13:00:09;;;;;;;2.35;1.10;;;;;;;0.87;89.11;95303.13;4960417;29;20037;-57
2021/11/30 13:03:20;;;;;;;3.25;1.30;;;;;;;0.99;89.45;95315.19;4960013;29;20027;-56
2021/11/30 13:06:06;;;;;;;3.13;2.83;;;;;;;1.14;91.01;95318.63;4959445;28;20059;-55
2021/11/30 13:09:04;;;;;;;1.38;1.05;;;;;;;1.01;89.57;95327.84;4951979;29;20043;-56
2021/11/30 13:11:59;;;;;;;0.65;0.55;;;;;;;0.27;85.57;95278.28;4959796;29;20039;-56
2021/11/30 13:14:46;;;;;;;0.50;0.50;;;;;;;0.64;84.79;95348.47;4962095;28;20043;-57
2021/11/30 13:17:35;;;;;;;1.33;0.60;;;;;;;0.58;85.25;95348.75;4958858;29;20059;-56